Time;durP1;ratioP1;P1;durP2;ratioP2;P2;SDS_P1;SDS_P2;PMS_P1;PMS_P2;Temp;Humidity;BMP_temperature;BMP_pressure;BME280_temperature;BME280_humidity;BME280_pressure;Samples;Min_cycle;Max_cycle;Signal;HPM_P1;HPM_P2
2022/07/14 00:01:08;;;;;;;6.80;2.10;;;16.00;99.90;;;;;;5009352;28;20439;-69
2022/07/14 00:03:33;;;;;;;7.68;2.20;;;16.10;99.90;;;;;;4997608;28;20037;-69
2022/07/14 00:05:59;;;;;;;8.30;2.40;;;16.10;99.90;;;;;;5009278;28;20033;-69
2022/07/14 00:08:24;;;;;;;10.32;2.50;;;15.90;99.90;;;;;;5002921;28;20026;-69
2022/07/14 00:10:53;;;;;;;17.85;3.10;;;15.90;99.90;;;;;;4990120;28;20030;-69
2022/07/14 00:13:19;;;;;;;9.63;2.47;;;15.80;99.90;;;;;;4989050;28;20447;-69
2022/07/14 00:15:45;;;;;;;9.15;2.78;;;15.70;99.90;;;;;;4990160;28;20054;-69
2022/07/14 00:18:11;;;;;;;7.78;2.30;;;15.80;99.90;;;;;;4989474;28;20599;-69
2022/07/14 00:20:36;;;;;;;7.88;1.92;;;15.70;99.90;;;;;;4989981;28;20077;-69
2022/07/14 00:23:02;;;;;;;8.55;2.10;;;15.60;99.90;;;;;;4999920;28;20038;-69
2022/07/14 00:25:28;;;;;;;13.75;2.70;;;15.70;99.90;;;;;;4976530;28;20036;-69
2022/07/14 00:27:54;;;;;;;11.35;2.47;;;15.70;99.90;;;;;;4989892;28;20089;-68
2022/07/14 00:30:21;;;;;;;10.05;3.15;;;15.70;99.90;;;;;;4992585;28;20058;-70
2022/07/14 00:32:47;;;;;;;12.57;3.70;;;15.80;99.90;;;;;;4993242;28;20032;-69
2022/07/14 00:35:13;;;;;;;14.13;2.70;;;15.80;99.90;;;;;;4992920;28;20030;-69
2022/07/14 00:37:39;;;;;;;9.32;2.80;;;15.90;99.90;;;;;;4993344;28;20041;-69
2022/07/14 00:40:06;;;;;;;10.25;2.80;;;15.90;99.90;;;;;;4993093;28;20492;-69
2022/07/14 00:42:35;;;;;;;8.73;2.70;;;15.80;99.90;;;;;;4992540;28;20025;-69
2022/07/14 00:45:04;;;;;;;13.45;3.22;;;15.90;99.90;;;;;;4993123;28;20018;-69
2022/07/14 00:47:30;;;;;;;8.82;2.67;;;;;;;;;;4992722;28;20030;-69
2022/07/14 00:49:56;;;;;;;14.40;3.65;;;15.90;99.90;;;;;;4993130;28;20034;-69
2022/07/14 00:52:25;;;;;;;6.60;2.67;;;15.90;99.90;;;;;;4992594;28;20031;-69
2022/07/14 00:54:50;;;;;;;10.85;3.40;;;15.70;99.90;;;;;;4992953;28;20026;-69
2022/07/14 00:57:16;;;;;;;11.48;3.03;;;16.30;99.90;;;;;;4992147;28;20105;-70
2022/07/14 00:59:42;;;;;;;7.68;2.55;;;15.70;99.90;;;;;;4992811;28;20035;-69
2022/07/14 01:02:08;;;;;;;8.38;2.83;;;15.80;99.90;;;;;;4992295;28;20027;-70
2022/07/14 01:04:33;;;;;;;9.55;2.83;;;15.80;99.90;;;;;;4992455;28;20459;-69
2022/07/14 01:06:59;;;;;;;6.95;2.42;;;15.70;99.90;;;;;;4992269;28;20026;-70
2022/07/14 01:09:24;;;;;;;12.60;3.53;;;15.70;99.90;;;;;;4992234;28;20038;-70
2022/07/14 01:11:50;;;;;;;8.25;2.15;;;15.80;99.90;;;;;;4992401;28;20046;-69
2022/07/14 01:14:16;;;;;;;12.93;2.45;;;;;;;;;;4992078;28;20054;-70
2022/07/14 01:16:42;;;;;;;11.20;2.63;;;15.70;99.90;;;;;;4992369;28;20049;-69
2022/07/14 01:19:08;;;;;;;13.48;2.28;;;15.50;99.90;;;;;;4992644;28;20053;-69
2022/07/14 01:21:34;;;;;;;13.82;2.72;;;15.50;99.90;;;;;;4991950;28;20117;-69
2022/07/14 01:24:00;;;;;;;7.97;2.92;;;15.60;99.90;;;;;;5006175;28;20432;-69
2022/07/14 01:26:25;;;;;;;9.45;2.30;;;15.50;99.90;;;;;;5001779;28;20034;-70
2022/07/14 01:28:50;;;;;;;7.57;2.65;;;15.50;99.90;;;;;;5011749;28;20141;-70
2022/07/14 01:31:16;;;;;;;10.65;2.20;;;15.50;99.90;;;;;;5008317;28;20030;-69
2022/07/14 01:33:42;;;;;;;7.68;2.17;;;15.40;99.90;;;;;;5006231;28;20475;-70
2022/07/14 01:36:07;;;;;;;9.18;2.80;;;15.40;99.90;;;;;;5011961;28;20025;-69
2022/07/14 01:38:33;;;;;;;10.70;4.25;;;15.40;99.90;;;;;;5011293;28;20046;-70
2022/07/14 01:40:58;;;;;;;11.27;2.55;;;15.30;99.90;;;;;;5011166;28;20026;-69
2022/07/14 01:43:24;;;;;;;11.13;2.80;;;15.20;99.90;;;;;;5011293;28;20034;-70
2022/07/14 01:45:49;;;;;;;9.85;2.72;;;15.20;99.90;;;;;;5011348;28;20025;-69
2022/07/14 01:48:15;;;;;;;11.65;2.70;;;15.20;99.90;;;;;;5011242;28;20028;-70
2022/07/14 01:50:41;;;;;;;12.27;2.42;;;15.30;99.90;;;;;;5011335;28;20447;-70
2022/07/14 01:53:07;;;;;;;11.55;2.90;;;;;;;;;;5011584;28;20022;-70
2022/07/14 01:55:34;;;;;;;9.63;1.95;;;15.20;99.90;;;;;;5010456;28;20108;-70
2022/07/14 01:58:00;;;;;;;9.45;2.97;;;;;;;;;;5011331;28;20056;-70
2022/07/14 02:00:25;;;;;;;6.65;1.90;;;15.10;99.90;;;;;;5010784;28;20026;-69
2022/07/14 02:02:51;;;;;;;9.70;2.72;;;15.10;99.90;;;;;;4997705;28;20038;-69
2022/07/14 02:05:16;;;;;;;9.50;3.15;;;14.90;99.90;;;;;;5008175;28;20026;-70
2022/07/14 02:07:42;;;;;;;10.20;2.80;;;15.00;99.90;;;;;;5011082;28;20029;-70
2022/07/14 02:12:52;;;;;;;16.55;3.08;;;14.90;99.90;;;;;;5011164;28;20084;-69
2022/07/14 02:15:18;;;;;;;10.80;2.65;;;15.00;99.90;;;;;;5010651;28;20061;-69
2022/07/14 02:17:43;;;;;;;17.48;3.65;;;14.90;99.90;;;;;;5011058;28;20017;-70
2022/07/14 02:20:10;;;;;;;7.53;2.10;;;14.80;99.90;;;;;;5010988;28;20029;-69
2022/07/14 02:22:36;;;;;;;14.18;2.85;;;14.80;99.90;;;;;;5010287;28;20058;-69
2022/07/14 02:25:02;;;;;;;9.85;2.30;;;15.20;99.90;;;;;;4998420;28;20057;-70
2022/07/14 02:27:27;;;;;;;13.43;3.15;;;14.70;99.90;;;;;;5009367;28;20025;-69
2022/07/14 02:29:54;;;;;;;9.88;2.78;;;14.70;99.90;;;;;;5010693;28;20046;-70
2022/07/14 02:32:20;;;;;;;12.77;3.60;;;;;;;;;;4999238;28;20018;-70
2022/07/14 02:34:46;;;;;;;9.48;2.30;;;14.70;99.90;;;;;;5010764;28;20026;-69
2022/07/14 02:37:12;;;;;;;8.23;2.42;;;14.70;99.90;;;;;;5009952;28;20036;-69
2022/07/14 02:39:37;;;;;;;6.38;2.10;;;14.50;99.90;;;;;;5010635;28;20108;-70
2022/07/14 02:42:03;;;;;;;8.48;2.47;;;14.60;99.90;;;;;;5005423;28;20045;-69
2022/07/14 02:44:29;;;;;;;15.80;3.28;;;14.50;99.90;;;;;;4991398;28;20651;-69
2022/07/14 02:46:54;;;;;;;14.55;3.35;;;14.50;99.90;;;;;;4990950;28;20031;-69
2022/07/14 02:49:20;;;;;;;17.02;2.92;;;;;;;;;;4999658;28;20500;-69
2022/07/14 02:51:45;;;;;;;9.15;2.35;;;14.50;99.90;;;;;;4989969;28;20149;-69
2022/07/14 02:54:11;;;;;;;8.50;2.30;;;14.40;99.90;;;;;;4990041;28;20062;-69
2022/07/14 02:56:36;;;;;;;7.40;2.38;;;14.30;99.90;;;;;;4990187;28;20069;-69
2022/07/14 02:59:06;;;;;;;9.48;2.25;;;14.30;99.90;;;;;;4990697;28;20113;-69
2022/07/14 03:01:31;;;;;;;7.65;2.05;;;14.10;99.90;;;;;;4990113;28;20107;-70
2022/07/14 03:03:57;;;;;;;11.63;2.40;;;14.30;99.90;;;;;;4990790;28;20443;-69
2022/07/14 03:06:23;;;;;;;10.30;3.47;;;;;;;;;;4988969;28;20072;-70
2022/07/14 03:08:48;;;;;;;10.50;2.67;;;14.20;99.90;;;;;;4990535;28;20034;-69
2022/07/14 03:11:14;;;;;;;7.35;1.63;;;;;;;;;;4990156;28;20061;-69
2022/07/14 03:13:40;;;;;;;11.00;2.70;;;14.30;99.90;;;;;;4990139;28;20065;-69
2022/07/14 03:16:09;;;;;;;5.25;2.22;;;14.20;99.90;;;;;;4999419;28;20022;-69
2022/07/14 03:18:35;;;;;;;8.90;2.30;;;14.10;99.90;;;;;;4979273;28;20109;-69
2022/07/14 03:21:05;;;;;;;6.03;2.40;;;14.10;99.90;;;;;;4990142;28;20030;-69
2022/07/14 03:23:30;;;;;;;12.57;2.80;;;14.00;99.90;;;;;;5003841;28;20068;-69
2022/07/14 03:25:56;;;;;;;14.88;3.75;;;14.00;99.90;;;;;;5010061;28;20049;-69
2022/07/14 03:28:22;;;;;;;11.95;2.42;;;;;;;;;;5009723;28;20030;-69
2022/07/14 03:30:54;;;;;;;13.30;2.92;;;14.00;99.90;;;;;;5009873;28;20029;-69
2022/07/14 03:33:20;;;;;;;9.70;3.35;;;;;;;;;;5009860;28;20018;-69
2022/07/14 03:35:45;;;;;;;10.70;2.70;;;14.00;99.90;;;;;;5007448;28;20372;-69
2022/07/14 03:38:11;;;;;;;7.22;2.28;;;14.10;99.90;;;;;;5000927;28;20042;-69
2022/07/14 03:40:39;;;;;;;8.13;3.17;;;13.90;99.90;;;;;;5004557;28;20475;-69
2022/07/14 03:43:04;;;;;;;12.82;2.08;;;14.10;99.90;;;;;;5008817;28;20018;-69
2022/07/14 03:45:30;;;;;;;10.60;3.20;;;14.00;99.90;;;;;;5007994;28;20037;-69
2022/07/14 03:47:55;;;;;;;11.13;2.70;;;14.00;99.90;;;;;;5009300;28;20458;-69
2022/07/14 03:50:21;;;;;;;9.48;2.13;;;13.90;99.90;;;;;;5009158;28;20038;-69
2022/07/14 03:52:47;;;;;;;7.88;2.50;;;;;;;;;;5009525;28;20467;-70
2022/07/14 03:55:13;;;;;;;7.00;2.97;;;13.90;99.90;;;;;;5009535;28;20168;-69
2022/07/14 03:57:39;;;;;;;12.70;2.33;;;;;;;;;;5009500;28;20459;-69
2022/07/14 04:00:06;;;;;;;9.43;2.17;;;13.80;99.90;;;;;;5008581;28;20092;-69
2022/07/14 04:02:31;;;;;;;8.60;2.83;;;13.90;99.90;;;;;;5009387;28;20140;-69
2022/07/14 04:04:57;;;;;;;12.38;3.03;;;14.00;99.90;;;;;;5012088;28;20479;-69
2022/07/14 04:07:22;;;;;;;6.60;2.50;;;13.90;99.90;;;;;;5006818;28;20037;-69
2022/07/14 04:09:49;;;;;;;5.78;2.28;;;13.90;99.90;;;;;;5012833;28;20530;-69
2022/07/14 04:12:15;;;;;;;8.90;2.45;;;13.90;99.90;;;;;;5013106;28;20379;-70
2022/07/14 04:14:41;;;;;;;10.00;1.75;;;13.90;99.90;;;;;;5012934;28;20506;-69
2022/07/14 04:17:07;;;;;;;7.22;1.98;;;13.90;99.90;;;;;;5013471;28;20094;-70
2022/07/14 04:19:32;;;;;;;6.75;1.60;;;13.90;99.90;;;;;;5012332;28;20116;-70
2022/07/14 04:21:59;;;;;;;11.95;2.70;;;13.90;99.90;;;;;;5013055;28;20052;-69
2022/07/14 04:24:25;;;;;;;19.13;2.75;;;;;;;;;;4995334;28;20462;-69
2022/07/14 04:26:51;;;;;;;10.60;2.15;;;13.90;99.90;;;;;;5013088;28;20028;-69
2022/07/14 04:29:17;;;;;;;13.73;2.50;;;13.90;99.90;;;;;;5012617;28;20457;-70
2022/07/14 04:31:42;;;;;;;8.98;2.17;;;14.00;99.90;;;;;;5012946;28;20061;-70
2022/07/14 04:34:08;;;;;;;12.60;2.40;;;13.90;99.90;;;;;;5012877;28;20128;-70
2022/07/14 04:36:33;;;;;;;7.35;2.05;;;13.90;99.90;;;;;;5008650;28;20524;-70
2022/07/14 04:38:59;;;;;;;9.75;2.10;;;;;;;;;;5012783;28;20387;-70
2022/07/14 04:41:25;;;;;;;11.57;2.63;;;;;;;;;;5012627;28;20030;-70
2022/07/14 04:43:52;;;;;;;7.35;2.05;;;14.10;99.90;;;;;;5012785;28;20085;-69
2022/07/14 04:46:18;;;;;;;9.05;2.08;;;14.00;99.90;;;;;;4985296;28;20514;-69
2022/07/14 04:54:13;;;;;;;9.25;2.10;;;;;;;;;;5012441;28;20029;-70
2022/07/14 04:56:38;;;;;;;7.60;1.85;;;14.30;99.90;;;;;;5012490;28;20030;-69
2022/07/14 04:59:03;;;;;;;7.18;2.10;;;14.20;99.90;;;;;;5012655;28;20088;-69
2022/07/14 05:01:29;;;;;;;9.27;2.05;;;14.70;99.90;;;;;;5011875;28;20479;-70
2022/07/14 05:03:54;;;;;;;8.65;2.30;;;14.30;99.90;;;;;;5008804;28;20025;-70
2022/07/14 05:06:20;;;;;;;10.23;2.53;;;14.50;99.90;;;;;;4994799;28;20022;-69
2022/07/14 05:08:46;;;;;;;9.93;3.42;;;14.60;99.90;;;;;;4992489;28;20030;-70
2022/07/14 05:11:11;;;;;;;12.32;2.35;;;14.70;99.90;;;;;;4992343;28;20030;-69
2022/07/14 05:13:37;;;;;;;10.00;3.13;;;14.70;99.90;;;;;;4992313;28;20117;-69
2022/07/14 05:16:04;;;;;;;8.68;2.08;;;;;;;;;;4991785;28;20382;-69
2022/07/14 05:18:29;;;;;;;8.40;2.33;;;14.30;99.90;;;;;;4990994;28;20883;-69
2022/07/14 05:20:55;;;;;;;8.30;2.05;;;;;;;;;;4992319;28;20137;-69
2022/07/14 05:23:21;;;;;;;8.23;3.00;;;;;;;;;;4991495;28;20018;-69
2022/07/14 05:25:48;;;;;;;6.03;1.90;;;;;;;;;;4991502;28;20036;-70
2022/07/14 05:28:13;;;;;;;11.38;2.10;;;15.10;99.90;;;;;;4991762;28;20025;-69
2022/07/14 05:30:39;;;;;;;7.13;2.50;;;15.30;99.90;;;;;;4991555;28;20034;-70
2022/07/14 05:33:04;;;;;;;9.68;2.72;;;15.30;99.90;;;;;;4982153;28;20476;-70
2022/07/14 05:35:30;;;;;;;9.50;2.55;;;15.30;99.90;;;;;;4991658;28;20038;-69
2022/07/14 05:37:55;;;;;;;15.48;3.05;;;15.30;99.90;;;;;;4995543;28;20058;-70
2022/07/14 05:40:21;;;;;;;8.15;1.98;;;15.30;99.90;;;;;;4991384;28;20097;-70
2022/07/14 05:42:47;;;;;;;17.00;2.03;;;15.30;99.90;;;;;;4991883;28;20022;-70
2022/07/14 05:45:12;;;;;;;11.60;2.72;;;15.40;99.90;;;;;;4991915;28;20036;-70
2022/07/14 05:47:38;;;;;;;10.27;2.17;;;15.50;99.90;;;;;;4991036;28;20026;-70
2022/07/14 05:50:04;;;;;;;9.07;1.70;;;15.70;99.90;;;;;;4988428;28;20035;-70
2022/07/14 05:52:30;;;;;;;10.77;2.10;;;15.60;99.90;;;;;;4991430;28;20442;-70
2022/07/14 05:54:59;;;;;;;11.20;1.70;;;15.60;99.90;;;;;;4991693;28;20022;-70
2022/07/14 05:57:24;;;;;;;5.40;2.30;;;15.80;99.90;;;;;;4991711;28;20022;-70
2022/07/14 05:59:50;;;;;;;14.25;1.85;;;15.90;99.90;;;;;;4991568;28;20030;-70
2022/07/14 06:02:16;;;;;;;16.30;2.90;;;15.80;99.90;;;;;;4991018;28;20365;-71
2022/07/14 06:04:42;;;;;;;11.85;2.70;;;15.80;99.90;;;;;;4991598;28;20026;-70
2022/07/14 06:07:08;;;;;;;8.80;1.98;;;16.00;99.90;;;;;;4991087;28;20037;-70
2022/07/14 06:09:36;;;;;;;9.50;1.70;;;15.90;99.90;;;;;;4991054;28;20051;-70
2022/07/14 06:12:06;;;;;;;8.80;1.35;;;16.20;99.90;;;;;;4990855;28;20081;-70
2022/07/14 06:14:32;;;;;;;8.10;1.92;;;16.20;99.90;;;;;;4996070;28;20046;-70
2022/07/14 06:16:57;;;;;;;5.78;1.67;;;15.90;99.90;;;;;;4998370;28;20084;-70
2022/07/14 06:19:23;;;;;;;10.60;2.20;;;16.20;99.90;;;;;;4991139;28;20026;-70
2022/07/14 06:21:49;;;;;;;7.38;2.05;;;16.30;99.90;;;;;;4997582;28;20030;-70
2022/07/14 06:24:14;;;;;;;11.90;2.08;;;16.30;99.90;;;;;;5010662;28;20022;-70
2022/07/14 06:26:40;;;;;;;7.88;1.40;;;16.40;99.90;;;;;;5010382;28;20028;-71
2022/07/14 06:29:06;;;;;;;10.13;2.25;;;16.40;99.90;;;;;;5010117;28;20062;-70
2022/07/14 06:31:34;;;;;;;11.95;2.33;;;16.50;99.90;;;;;;5010627;28;20505;-69
2022/07/14 06:34:00;;;;;;;13.13;2.70;;;16.60;99.90;;;;;;5009964;28;20022;-69
2022/07/14 06:36:26;;;;;;;10.07;2.28;;;16.60;99.90;;;;;;4995303;28;20434;-69
2022/07/14 06:38:51;;;;;;;14.23;2.65;;;16.70;99.90;;;;;;4990938;28;20030;-69
2022/07/14 06:41:20;;;;;;;6.32;1.00;;;16.70;99.90;;;;;;4978850;28;20069;-69
2022/07/14 06:43:46;;;;;;;6.95;1.50;;;16.70;99.90;;;;;;4990541;28;20018;-69
2022/07/14 06:46:16;;;;;;;9.57;1.92;;;16.80;99.90;;;;;;4990155;28;20030;-69
2022/07/14 06:48:42;;;;;;;7.68;1.48;;;16.80;99.90;;;;;;4991028;28;20483;-69
2022/07/14 06:51:08;;;;;;;7.10;1.52;;;16.90;99.90;;;;;;4990501;28;20033;-70
2022/07/14 06:53:33;;;;;;;7.68;1.73;;;17.00;99.90;;;;;;4994477;28;20029;-70
2022/07/14 06:55:59;;;;;;;6.65;1.65;;;17.00;99.90;;;;;;4994491;28;20030;-69
2022/07/14 06:58:24;;;;;;;6.53;1.63;;;17.10;99.90;;;;;;4990106;28;20029;-69
2022/07/14 07:00:50;;;;;;;5.97;1.40;;;17.20;99.90;;;;;;4990623;28;20057;-69
2022/07/14 07:03:15;;;;;;;14.57;1.95;;;17.30;99.90;;;;;;4990275;28;20030;-69
2022/07/14 07:08:28;;;;;;;11.57;2.83;;;17.50;99.90;;;;;;4990240;28;20050;-70
2022/07/14 07:10:58;;;;;;;9.63;1.63;;;17.40;99.90;;;;;;4990460;28;20463;-69
2022/07/14 07:13:29;;;;;;;8.25;1.58;;;17.00;99.90;;;;;;4989326;28;20057;-70
2022/07/14 07:15:55;;;;;;;12.23;2.83;;;17.50;99.90;;;;;;4990625;28;20548;-69
2022/07/14 07:18:20;;;;;;;11.85;1.55;;;17.50;99.90;;;;;;4990269;28;20097;-70
2022/07/14 07:20:46;;;;;;;5.93;1.05;;;17.60;99.90;;;;;;5005418;28;20595;-69
2022/07/14 07:23:11;;;;;;;7.93;1.42;;;17.70;99.90;;;;;;5001478;28;20041;-69
2022/07/14 07:25:37;;;;;;;7.93;2.50;;;17.60;99.90;;;;;;5010000;28;20029;-70
2022/07/14 07:28:02;;;;;;;4.78;0.90;;;19.10;99.90;;;;;;5006926;28;20057;-69
2022/07/14 07:30:28;;;;;;;5.32;1.30;;;17.90;99.90;;;;;;4989427;28;20121;-69
2022/07/14 07:32:54;;;;;;;3.88;1.65;;;17.90;99.90;;;;;;4989714;28;20038;-69
2022/07/14 07:35:20;;;;;;;6.32;1.20;;;17.90;99.90;;;;;;4991930;28;20062;-69
2022/07/14 07:37:47;;;;;;;7.78;1.45;;;18.00;99.90;;;;;;4982306;28;20410;-69
2022/07/14 07:40:14;;;;;;;6.22;0.93;;;18.20;99.90;;;;;;4993405;28;20557;-69
2022/07/14 07:42:40;;;;;;;7.40;1.02;;;18.10;99.90;;;;;;4993813;28;20023;-69
2022/07/14 07:45:07;;;;;;;5.60;1.13;;;18.20;99.40;;;;;;4994327;28;20019;-69
2022/07/14 07:47:33;;;;;;;8.23;1.35;;;18.30;99.10;;;;;;4993515;28;20455;-70
2022/07/14 07:49:59;;;;;;;8.93;2.08;;;18.30;99.20;;;;;;4993921;28;20494;-70
2022/07/14 07:52:25;;;;;;;6.97;1.10;;;18.30;99.10;;;;;;4993288;28;20031;-70
2022/07/14 07:54:50;;;;;;;4.93;1.33;;;18.30;98.90;;;;;;4994094;28;20101;-70
2022/07/14 07:57:16;;;;;;;5.20;1.25;;;18.40;98.90;;;;;;4993419;28;20113;-70
2022/07/14 07:59:42;;;;;;;3.42;0.93;;;18.50;98.60;;;;;;4993826;28;20031;-70
2022/07/14 08:02:08;;;;;;;4.95;1.30;;;18.60;98.40;;;;;;4994123;28;20471;-70
2022/07/14 08:04:33;;;;;;;7.00;1.00;;;18.60;98.40;;;;;;4993428;28;20027;-70
2022/07/14 08:06:59;;;;;;;5.85;1.05;;;18.70;98.10;;;;;;4992362;28;20073;-70
2022/07/14 08:09:24;;;;;;;5.55;1.08;;;18.80;98.00;;;;;;4990225;28;20034;-70
2022/07/14 08:11:50;;;;;;;3.80;1.10;;;18.80;97.90;;;;;;4993563;28;20050;-70
2022/07/14 08:16:59;;;;;;;;;;;19.10;97.10;;;;;;4988685;28;20049;-70
2022/07/14 08:19:26;;;;;;;6.38;1.23;;;19.10;98.30;;;;;;4988992;28;19984;-70
2022/07/14 08:21:51;;;;;;;4.15;1.33;;;19.20;97.70;;;;;;4993915;28;20364;-70
2022/07/14 08:24:19;;;;;;;4.35;1.02;;;19.20;97.50;;;;;;5013213;28;20014;-70
2022/07/14 08:26:46;;;;;;;5.10;0.82;;;19.40;97.30;;;;;;5012364;28;20479;-70
2022/07/14 08:29:13;;;;;;;4.20;0.88;;;19.30;97.20;;;;;;4998958;28;20443;-69
2022/07/14 08:31:38;;;;;;;7.03;1.10;;;19.40;97.00;;;;;;5012939;28;20034;-69
2022/07/14 08:34:04;;;;;;;5.00;0.88;;;19.50;96.70;;;;;;5012956;28;20040;-69
2022/07/14 08:36:30;;;;;;;4.68;1.02;;;19.50;96.40;;;;;;5012757;28;20037;-69
2022/07/14 08:38:56;;;;;;;4.28;1.23;;;19.50;96.50;;;;;;5007364;28;20026;-69
2022/07/14 08:41:22;;;;;;;6.38;0.80;;;19.70;96.40;;;;;;4990658;28;20026;-69
2022/07/14 08:43:48;;;;;;;5.95;0.90;;;19.80;96.10;;;;;;5012724;28;20026;-69
2022/07/14 08:46:14;;;;;;;4.75;0.77;;;20.60;96.30;;;;;;5012223;28;20081;-69
2022/07/14 08:48:40;;;;;;;9.45;1.33;;;19.90;95.80;;;;;;5012453;28;20037;-70
2022/07/14 08:51:06;;;;;;;7.28;1.23;;;19.70;95.60;;;;;;5011927;28;20030;-69
2022/07/14 08:53:33;;;;;;;9.30;1.73;;;20.00;95.50;;;;;;5011577;28;20474;-70
2022/07/14 08:55:59;;;;;;;6.20;1.42;;;19.90;95.40;;;;;;5001601;28;20025;-70
2022/07/14 08:58:25;;;;;;;5.90;0.60;;;20.10;95.40;;;;;;4994098;28;20030;-72
2022/07/14 09:00:50;;;;;;;3.83;1.13;;;21.50;95.70;;;;;;4997890;28;20123;-71
2022/07/14 09:03:16;;;;;;;4.95;1.35;;;20.30;94.90;;;;;;4992702;28;20029;-70
2022/07/14 09:05:44;;;;;;;7.32;1.05;;;20.30;94.80;;;;;;4992447;28;20060;-70
2022/07/14 09:08:11;;;;;;;5.20;1.27;;;20.40;94.40;;;;;;4992710;28;20018;-70
2022/07/14 09:10:38;;;;;;;4.70;1.27;;;20.40;94.00;;;;;;4992012;28;20031;-70
2022/07/14 09:13:19;;;;;;;2.58;0.82;;;20.40;93.80;;;;;;4992590;28;20423;-70
2022/07/14 09:15:46;;;;;;;3.20;1.10;;;20.50;92.90;;;;;;4976568;28;20034;-70
2022/07/14 09:18:26;;;;;;;2.63;0.70;;;20.50;93.60;;;;;;4995094;28;20079;-71
2022/07/14 09:20:54;;;;;;;2.47;0.60;;;20.80;93.60;;;;;;4992320;28;20042;-70
2022/07/14 09:23:31;;;;;;;2.65;1.15;;;20.80;93.10;;;;;;5001565;28;20109;-70
2022/07/14 09:26:15;;;;;;;5.65;0.82;;;21.00;92.30;;;;;;4999601;28;20061;-70
2022/07/14 09:28:42;;;;;;;5.30;1.05;;;20.90;93.00;;;;;;4992701;28;20018;-70
2022/07/14 09:31:25;;;;;;;4.93;1.00;;;20.90;92.40;;;;;;4993317;28;20028;-70
2022/07/14 09:34:05;;;;;;;5.28;1.00;;;20.90;91.70;;;;;;4996242;28;20097;-70
2022/07/14 09:36:31;;;;;;;3.33;1.10;;;21.10;92.20;;;;;;4992070;28;20134;-71
2022/07/14 09:39:00;;;;;;;7.13;1.27;;;21.00;91.50;;;;;;5005610;28;20032;-70
2022/07/14 09:41:26;;;;;;;2.58;0.60;;;21.10;91.60;;;;;;4992029;28;20486;-71
2022/07/14 09:44:17;;;;;;;3.80;0.93;;;21.10;91.20;;;;;;4991919;28;20121;-70
2022/07/14 09:46:56;;;;;;;4.85;0.93;;;21.30;90.60;;;;;;4989646;28;20041;-71
2022/07/14 09:49:31;;;;;;;4.70;1.15;;;21.30;90.30;;;;;;4991499;28;20484;-71
2022/07/14 09:52:04;;;;;;;3.50;0.80;;;21.50;90.90;;;;;;4999021;28;20026;-71
2022/07/14 09:54:49;;;;;;;4.15;0.68;;;21.70;89.70;;;;;;4978344;28;20073;-71
2022/07/14 09:57:14;;;;;;;4.60;0.52;;;22.10;90.60;;;;;;4983932;28;20026;-71
2022/07/14 09:59:46;;;;;;;3.83;0.68;;;22.00;89.30;;;;;;4991320;28;20018;-71
2022/07/14 10:02:34;;;;;;;4.50;1.20;;;22.10;88.30;;;;;;4989880;28;20220;-71
2022/07/14 10:05:07;;;;;;;2.53;0.73;;;22.10;85.30;;;;;;4991812;28;20038;-71
2022/07/14 10:07:35;;;;;;;2.72;0.60;;;22.00;85.70;;;;;;4990935;28;20025;-71
2022/07/14 10:10:09;;;;;;;3.90;0.60;;;21.90;87.00;;;;;;4991350;28;20050;-71
2022/07/14 10:12:36;;;;;;;2.80;0.80;;;22.00;86.50;;;;;;4994303;28;20018;-71
2022/07/14 10:15:13;;;;;;;2.33;0.65;;;21.90;86.10;;;;;;4998287;28;20053;-70
2022/07/14 10:17:41;;;;;;;2.38;0.50;;;21.90;86.00;;;;;;4991274;28;20602;-70
2022/07/14 10:20:10;;;;;;;3.17;0.80;;;22.10;85.70;;;;;;4991773;28;20383;-70
2022/07/14 10:22:36;;;;;;;3.72;0.80;;;22.20;83.50;;;;;;4997234;28;20079;-70
2022/07/14 10:25:07;;;;;;;2.22;0.52;;;22.20;83.30;;;;;;4988128;28;20023;-72
2022/07/14 10:27:34;;;;;;;2.63;0.70;;;22.30;81.80;;;;;;5007985;28;20033;-70
2022/07/14 10:29:59;;;;;;;3.35;1.08;;;22.40;83.00;;;;;;5010771;28;20480;-70
2022/07/14 10:32:47;;;;;;;3.92;1.02;;;22.50;82.70;;;;;;5010648;28;20026;-70
2022/07/14 10:35:42;;;;;;;1.15;0.40;;;23.80;81.70;;;;;;5010938;28;20029;-70
2022/07/14 10:38:23;;;;;;;1.98;0.50;;;22.50;79.00;;;;;;5011221;28;20478;-70
2022/07/14 10:41:15;;;;;;;2.22;0.60;;;22.50;78.60;;;;;;5010741;28;20032;-70
2022/07/14 10:43:59;;;;;;;3.28;0.80;;;22.70;77.20;;;;;;5010549;28;20029;-70
2022/07/14 10:46:42;;;;;;;2.90;0.70;;;22.70;78.60;;;;;;4985492;28;20026;-70
2022/07/14 10:49:10;;;;;;;3.63;0.60;;;22.90;79.10;;;;;;5010484;28;20049;-70
2022/07/14 10:51:50;;;;;;;2.28;1.05;;;22.90;78.00;;;;;;5010018;28;20374;-70
2022/07/14 10:54:29;;;;;;;2.67;0.60;;;23.30;76.00;;;;;;5002664;28;20551;-70
2022/07/14 10:57:17;;;;;;;2.58;0.85;;;23.40;74.90;;;;;;5008044;28;20077;-70
2022/07/14 10:59:47;;;;;;;1.92;0.63;;;23.80;78.00;;;;;;5010041;28;20497;-70
2022/07/14 11:02:13;;;;;;;4.43;0.70;;;23.70;77.10;;;;;;5010110;28;20022;-70
2022/07/14 11:04:59;;;;;;;1.85;0.63;;;22.30;75.20;;;;;;5009627;28;20025;-72
2022/07/14 11:07:51;;;;;;;3.63;0.70;;;24.10;74.00;;;;;;5010159;28;20022;-69
2022/07/14 11:10:19;;;;;;;2.10;0.50;;;24.30;73.20;;;;;;4985553;28;20037;-70
2022/07/14 11:13:17;;;;;;;4.97;1.00;;;24.30;74.50;;;;;;5009658;28;20064;-70
2022/07/14 11:15:59;;;;;;;2.55;0.98;;;24.60;74.30;;;;;;4938596;28;20101;-70
2022/07/14 11:18:28;;;;;;;3.35;0.80;;;24.70;70.40;;;;;;5006846;28;20498;-70
2022/07/14 11:21:07;;;;;;;4.15;0.63;;;24.60;71.00;;;;;;5009487;28;20111;-70
2022/07/14 11:23:51;;;;;;;2.70;0.75;;;24.80;70.10;;;;;;5008326;28;20092;-71
2022/07/14 11:26:37;;;;;;;2.60;0.70;;;24.90;70.90;;;;;;5010021;28;20479;-71
2022/07/14 11:29:07;;;;;;;2.97;0.80;;;25.20;71.50;;;;;;4990796;28;20438;-71
2022/07/14 11:31:49;;;;;;;3.58;1.15;;;25.00;68.90;;;;;;5009577;28;20479;-71
2022/07/14 11:37:31;;;;;;;2.50;0.80;;;25.00;69.70;;;;;;4929919;29;20043;-70
2022/07/14 11:39:57;;;;;;;5.75;0.70;;;25.00;69.30;;;;;;4927664;29;20028;-70
2022/07/14 11:42:22;;;;;;;2.53;0.90;;;25.10;68.10;;;;;;4925717;29;20036;-70
2022/07/14 11:44:51;;;;;;;5.10;0.93;;;24.80;67.10;;;;;;4923021;29;20441;-71
2022/07/14 11:47:19;;;;;;;2.80;0.55;;;25.30;68.20;;;;;;4897448;29;20367;-71
2022/07/14 11:49:53;;;;;;;2.63;0.70;;;24.70;68.20;;;;;;4918403;29;20063;-71
2022/07/14 11:52:28;;;;;;;1.77;0.50;;;24.70;68.10;;;;;;4917073;29;20036;-71
2022/07/14 11:54:56;;;;;;;2.78;0.73;;;24.60;65.90;;;;;;4909643;29;20553;-71
2022/07/14 11:57:21;;;;;;;1.70;0.50;;;26.20;68.10;;;;;;4918554;29;20110;-71
2022/07/14 11:59:47;;;;;;;1.75;0.40;;;24.80;66.40;;;;;;4912580;29;20099;-70
2022/07/14 12:02:15;;;;;;;5.15;1.08;;;24.80;65.70;;;;;;4919011;29;20560;-71
2022/07/14 12:04:56;;;;;;;1.95;0.50;;;25.00;66.60;;;;;;4910402;29;20020;-71
2022/07/14 12:07:49;;;;;;;2.15;0.60;;;24.90;66.40;;;;;;4920363;28;20505;-71
2022/07/14 12:10:32;;;;;;;2.45;0.40;;;24.70;66.20;;;;;;4987672;28;20046;-71
2022/07/14 12:12:58;;;;;;;2.92;0.50;;;24.70;66.40;;;;;;4994270;28;20040;-71
2022/07/14 12:15:25;;;;;;;2.88;0.63;;;24.70;66.00;;;;;;4997333;28;20037;-71
2022/07/14 12:17:53;;;;;;;1.58;0.57;;;24.60;66.30;;;;;;5004268;28;20049;-71
2022/07/14 12:20:20;;;;;;;6.03;0.82;;;24.90;67.10;;;;;;4979139;28;20579;-71
2022/07/14 12:22:55;;;;;;;5.60;0.77;;;24.80;66.90;;;;;;4997786;28;20022;-71
2022/07/14 12:25:24;;;;;;;3.78;0.75;;;24.50;67.20;;;;;;5011091;28;20034;-71
2022/07/14 12:27:50;;;;;;;3.90;1.20;;;24.20;67.20;;;;;;5012973;28;20053;-71
2022/07/14 12:30:16;;;;;;;3.60;0.75;;;24.20;67.70;;;;;;5012468;28;20076;-71
2022/07/14 12:32:41;;;;;;;3.17;1.10;;;24.40;67.80;;;;;;4984862;28;20030;-71
2022/07/14 12:35:07;;;;;;;1.70;0.70;;;25.40;68.90;;;;;;5013034;28;20025;-72
2022/07/14 12:37:34;;;;;;;3.10;0.57;;;24.00;68.80;;;;;;5012497;28;20021;-71
2022/07/14 12:40:00;;;;;;;2.72;0.80;;;25.00;69.70;;;;;;5013091;28;20498;-71
2022/07/14 12:42:25;;;;;;;2.38;0.65;;;23.70;69.10;;;;;;5012644;28;20026;-71
2022/07/14 12:45:07;;;;;;;2.17;0.77;;;23.70;69.50;;;;;;5012837;28;20535;-71
2022/07/14 12:47:48;;;;;;;2.15;0.50;;;23.60;70.70;;;;;;4993732;28;20041;-71
2022/07/14 12:50:25;;;;;;;4.13;0.80;;;23.70;71.20;;;;;;5006319;28;20034;-71
2022/07/14 12:52:58;;;;;;;3.75;0.57;;;24.40;68.70;;;;;;4990321;28;20023;-71
2022/07/14 12:55:30;;;;;;;2.00;0.80;;;24.10;69.80;;;;;;4990798;28;20054;-69
2022/07/14 12:58:02;;;;;;;4.35;0.95;;;23.90;69.70;;;;;;4981671;28;20049;-70
2022/07/14 13:00:31;;;;;;;3.03;0.60;;;23.90;69.60;;;;;;4992157;28;20495;-70
2022/07/14 13:03:26;;;;;;;2.00;0.57;;;24.10;69.50;;;;;;4992710;28;20495;-70
2022/07/14 13:05:57;;;;;;;2.95;0.43;;;24.00;70.30;;;;;;4982712;28;20039;-70
2022/07/14 13:08:36;;;;;;;3.80;0.70;;;24.10;69.20;;;;;;4992375;28;20061;-70
2022/07/14 13:11:10;;;;;;;2.72;0.50;;;24.00;67.40;;;;;;4992886;28;20036;-69
2022/07/14 13:13:38;;;;;;;2.17;0.70;;;23.90;67.30;;;;;;4992261;28;20050;-69